Merksplas, Belgium
Current Conditions -  °F | °C
As of 2:16 PM on Tuesday 21 Oct 2014 (Local Time) from EHGR Reporting Station
Broken Clouds Broken Clouds  
Wind Chill: 57°   Ceiling: 2200
Heat Index: 57°   Visibility: 6mi
Dew Point: 55°   Wind: 14mph
Humidity: 94%   Direction: 230°SW
Pressure: 29.47"   Gusts: NA
Location:  51.36°N, 4.87°E
Report Text: EHGR 211216Z AUTO 23012KT 9999 FEW013 SCT018 BKN022 14/13 Q0998 RERA WHT 24015G25KT 9999 SCT020 SCT030 TEMPO 27020G35KT 3000 SHRA SCT010 BKN015CB OVC020
Loading
Personal Weather Stations






























Interactive Weather Map New forecast layout! Learn more

10-Day Weather Forecast

Advertisements
Track Severe Weather on mobile